sensor_id;sensor_type;location;lat;lon;timestamp;P1;durP1;ratioP1;P2;durP2;ratioP2
61397;SDS011;47267;48.130;-2.040;2023-02-24T00:02:06;1.98;;;1.45;;
61397;SDS011;47267;48.130;-2.040;2023-02-24T00:04:32;2.15;;;1.40;;
61397;SDS011;47267;48.130;-2.040;2023-02-24T00:09:28;1.95;;;1.60;;
61397;SDS011;47267;48.130;-2.040;2023-02-24T00:11:56;4.25;;;1.80;;
61397;SDS011;47267;48.130;-2.040;2023-02-24T00:14:27;2.22;;;1.50;;
61397;SDS011;47267;48.130;-2.040;2023-02-24T00:16:58;1.95;;;1.35;;
61397;SDS011;47267;48.130;-2.040;2023-02-24T00:19:24;2.63;;;2.05;;
61397;SDS011;47267;48.130;-2.040;2023-02-24T00:21:53;3.80;;;1.70;;
61397;SDS011;47267;48.130;-2.040;2023-02-24T00:24:19;1.95;;;1.50;;
61397;SDS011;47267;48.130;-2.040;2023-02-24T00:26:50;3.70;;;2.10;;
61397;SDS011;47267;48.130;-2.040;2023-02-24T00:29:18;3.08;;;1.52;;
61397;SDS011;47267;48.130;-2.040;2023-02-24T00:31:44;2.45;;;1.55;;
61397;SDS011;47267;48.130;-2.040;2023-02-24T00:34:11;2.38;;;1.67;;
61397;SDS011;47267;48.130;-2.040;2023-02-24T00:36:37;2.00;;;1.65;;
61397;SDS011;47267;48.130;-2.040;2023-02-24T00:39:04;1.80;;;1.60;;
61397;SDS011;47267;48.130;-2.040;2023-02-24T00:41:37;2.20;;;1.70;;
61397;SDS011;47267;48.130;-2.040;2023-02-24T00:44:08;3.58;;;1.70;;
61397;SDS011;47267;48.130;-2.040;2023-02-24T00:49:08;2.22;;;1.55;;
61397;SDS011;47267;48.130;-2.040;2023-02-24T00:51:38;3.22;;;1.67;;
61397;SDS011;47267;48.130;-2.040;2023-02-24T00:54:05;2.30;;;1.52;;
61397;SDS011;47267;48.130;-2.040;2023-02-24T00:56:32;2.92;;;1.55;;
61397;SDS011;47267;48.130;-2.040;2023-02-24T00:58:59;2.45;;;1.70;;
61397;SDS011;47267;48.130;-2.040;2023-02-24T01:01:27;1.98;;;1.45;;
61397;SDS011;47267;48.130;-2.040;2023-02-24T01:03:57;2.20;;;1.33;;
61397;SDS011;47267;48.130;-2.040;2023-02-24T01:06:25;2.25;;;1.58;;
61397;SDS011;47267;48.130;-2.040;2023-02-24T01:08:53;2.28;;;1.60;;
61397;SDS011;47267;48.130;-2.040;2023-02-24T01:11:21;2.58;;;1.58;;
61397;SDS011;47267;48.130;-2.040;2023-02-24T01:14:08;2.17;;;1.65;;
61397;SDS011;47267;48.130;-2.040;2023-02-24T01:16:42;3.78;;;1.75;;
61397;SDS011;47267;48.130;-2.040;2023-02-24T01:19:10;3.05;;;1.73;;
61397;SDS011;47267;48.130;-2.040;2023-02-24T01:21:36;2.03;;;1.55;;
61397;SDS011;47267;48.130;-2.040;2023-02-24T01:24:02;2.75;;;1.70;;
61397;SDS011;47267;48.130;-2.040;2023-02-24T01:26:28;1.98;;;1.73;;
61397;SDS011;47267;48.130;-2.040;2023-02-24T01:28:55;2.35;;;1.80;;
61397;SDS011;47267;48.130;-2.040;2023-02-24T01:31:21;2.53;;;1.88;;
61397;SDS011;47267;48.130;-2.040;2023-02-24T01:33:50;2.00;;;1.63;;
61397;SDS011;47267;48.130;-2.040;2023-02-24T01:36:20;3.65;;;1.73;;
61397;SDS011;47267;48.130;-2.040;2023-02-24T01:38:48;2.60;;;1.67;;
61397;SDS011;47267;48.130;-2.040;2023-02-24T01:41:15;2.63;;;1.80;;
61397;SDS011;47267;48.130;-2.040;2023-02-24T01:43:56;3.63;;;2.10;;
61397;SDS011;47267;48.130;-2.040;2023-02-24T01:46:26;2.35;;;1.85;;
61397;SDS011;47267;48.130;-2.040;2023-02-24T01:48:54;2.65;;;1.92;;
61397;SDS011;47267;48.130;-2.040;2023-02-24T01:51:24;2.05;;;1.60;;
61397;SDS011;47267;48.130;-2.040;2023-02-24T01:53:52;2.17;;;1.73;;
61397;SDS011;47267;48.130;-2.040;2023-02-24T01:56:19;3.13;;;1.90;;
61397;SDS011;47267;48.130;-2.040;2023-02-24T01:58:44;3.35;;;1.90;;
61397;SDS011;47267;48.130;-2.040;2023-02-24T02:01:11;2.33;;;1.70;;
61397;SDS011;47267;48.130;-2.040;2023-02-24T02:03:41;3.78;;;1.98;;
61397;SDS011;47267;48.130;-2.040;2023-02-24T02:06:11;2.38;;;1.83;;
61397;SDS011;47267;48.130;-2.040;2023-02-24T02:08:41;2.65;;;1.70;;
61397;SDS011;47267;48.130;-2.040;2023-02-24T02:11:09;2.38;;;1.90;;
61397;SDS011;47267;48.130;-2.040;2023-02-24T02:13:38;2.95;;;2.00;;
61397;SDS011;47267;48.130;-2.040;2023-02-24T02:16:14;3.22;;;2.30;;
61397;SDS011;47267;48.130;-2.040;2023-02-24T02:21:56;2.58;;;2.20;;
61397;SDS011;47267;48.130;-2.040;2023-02-24T02:24:54;3.42;;;2.40;;
61397;SDS011;47267;48.130;-2.040;2023-02-24T02:27:32;2.35;;;1.92;;
61397;SDS011;47267;48.130;-2.040;2023-02-24T02:33:17;2.83;;;2.30;;
61397;SDS011;47267;48.130;-2.040;2023-02-24T02:35:55;2.97;;;2.47;;
61397;SDS011;47267;48.130;-2.040;2023-02-24T02:38:46;2.35;;;1.80;;
61397;SDS011;47267;48.130;-2.040;2023-02-24T02:41:35;2.72;;;2.20;;
61397;SDS011;47267;48.130;-2.040;2023-02-24T02:44:28;3.30;;;2.10;;
61397;SDS011;47267;48.130;-2.040;2023-02-24T02:47:11;3.15;;;2.33;;
61397;SDS011;47267;48.130;-2.040;2023-02-24T02:53:19;3.05;;;2.10;;
61397;SDS011;47267;48.130;-2.040;2023-02-24T02:55:27;2.92;;;2.10;;
61397;SDS011;47267;48.130;-2.040;2023-02-24T02:58:04;4.03;;;2.10;;
61397;SDS011;47267;48.130;-2.040;2023-02-24T03:00:35;3.13;;;2.40;;
61397;SDS011;47267;48.130;-2.040;2023-02-24T03:03:11;2.78;;;1.98;;
61397;SDS011;47267;48.130;-2.040;2023-02-24T03:05:46;2.67;;;2.00;;
61397;SDS011;47267;48.130;-2.040;2023-02-24T03:08:20;3.03;;;2.10;;
61397;SDS011;47267;48.130;-2.040;2023-02-24T03:10:49;2.90;;;2.20;;
61397;SDS011;47267;48.130;-2.040;2023-02-24T03:13:22;3.20;;;2.67;;
61397;SDS011;47267;48.130;-2.040;2023-02-24T03:15:54;3.55;;;2.30;;
61397;SDS011;47267;48.130;-2.040;2023-02-24T03:18:28;2.70;;;1.90;;
61397;SDS011;47267;48.130;-2.040;2023-02-24T03:23:57;3.92;;;2.30;;
61397;SDS011;47267;48.130;-2.040;2023-02-24T03:26:34;3.13;;;2.20;;
61397;SDS011;47267;48.130;-2.040;2023-02-24T03:29:07;2.28;;;1.92;;
61397;SDS011;47267;48.130;-2.040;2023-02-24T03:31:50;3.88;;;2.35;;
61397;SDS011;47267;48.130;-2.040;2023-02-24T03:34:37;3.13;;;2.10;;
61397;SDS011;47267;48.130;-2.040;2023-02-24T03:37:23;3.05;;;2.20;;
61397;SDS011;47267;48.130;-2.040;2023-02-24T03:39:58;3.05;;;2.47;;
61397;SDS011;47267;48.130;-2.040;2023-02-24T03:42:31;3.53;;;2.35;;
61397;SDS011;47267;48.130;-2.040;2023-02-24T03:44:58;3.65;;;2.22;;
61397;SDS011;47267;48.130;-2.040;2023-02-24T03:47:25;2.88;;;2.30;;
61397;SDS011;47267;48.130;-2.040;2023-02-24T03:49:51;2.60;;;2.15;;
61397;SDS011;47267;48.130;-2.040;2023-02-24T04:12:08;3.60;;;2.22;;
61397;SDS011;47267;48.130;-2.040;2023-02-24T04:17:09;3.15;;;2.03;;
61397;SDS011;47267;48.130;-2.040;2023-02-24T04:19:43;3.35;;;2.20;;
61397;SDS011;47267;48.130;-2.040;2023-02-24T04:22:12;3.03;;;2.20;;
61397;SDS011;47267;48.130;-2.040;2023-02-24T04:24:42;3.65;;;2.30;;
61397;SDS011;47267;48.130;-2.040;2023-02-24T04:27:10;3.47;;;2.10;;
61397;SDS011;47267;48.130;-2.040;2023-02-24T04:29:45;3.78;;;2.42;;
61397;SDS011;47267;48.130;-2.040;2023-02-24T04:32:25;3.55;;;2.63;;
61397;SDS011;47267;48.130;-2.040;2023-02-24T04:34:59;4.97;;;2.38;;
61397;SDS011;47267;48.130;-2.040;2023-02-24T04:37:30;3.78;;;2.50;;
61397;SDS011;47267;48.130;-2.040;2023-02-24T04:39:59;2.72;;;2.20;;
61397;SDS011;47267;48.130;-2.040;2023-02-24T04:42:26;3.65;;;2.20;;
61397;SDS011;47267;48.130;-2.040;2023-02-24T04:44:52;3.47;;;2.28;;
61397;SDS011;47267;48.130;-2.040;2023-02-24T04:47:18;3.30;;;2.17;;
61397;SDS011;47267;48.130;-2.040;2023-02-24T04:49:44;2.50;;;2.17;;
61397;SDS011;47267;48.130;-2.040;2023-02-24T04:52:10;3.45;;;2.20;;
61397;SDS011;47267;48.130;-2.040;2023-02-24T04:54:39;2.78;;;2.13;;
61397;SDS011;47267;48.130;-2.040;2023-02-24T04:57:04;3.13;;;2.05;;
61397;SDS011;47267;48.130;-2.040;2023-02-24T04:59:32;5.07;;;2.42;;
61397;SDS011;47267;48.130;-2.040;2023-02-24T05:01:57;4.47;;;2.33;;
61397;SDS011;47267;48.130;-2.040;2023-02-24T05:04:25;3.05;;;2.15;;
61397;SDS011;47267;48.130;-2.040;2023-02-24T05:06:54;2.72;;;1.92;;
61397;SDS011;47267;48.130;-2.040;2023-02-24T05:09:21;3.10;;;2.33;;
61397;SDS011;47267;48.130;-2.040;2023-02-24T05:11:49;3.80;;;2.40;;
61397;SDS011;47267;48.130;-2.040;2023-02-24T05:14:17;4.05;;;2.33;;
61397;SDS011;47267;48.130;-2.040;2023-02-24T05:16:48;3.63;;;2.13;;
61397;SDS011;47267;48.130;-2.040;2023-02-24T05:19:16;3.70;;;2.50;;
61397;SDS011;47267;48.130;-2.040;2023-02-24T05:22:02;3.60;;;2.40;;
61397;SDS011;47267;48.130;-2.040;2023-02-24T05:24:29;3.72;;;2.20;;
61397;SDS011;47267;48.130;-2.040;2023-02-24T05:26:55;3.53;;;2.08;;
61397;SDS011;47267;48.130;-2.040;2023-02-24T05:29:24;4.72;;;2.55;;
61397;SDS011;47267;48.130;-2.040;2023-02-24T05:31:52;2.72;;;2.20;;
61397;SDS011;47267;48.130;-2.040;2023-02-24T05:34:23;3.20;;;2.30;;
61397;SDS011;47267;48.130;-2.040;2023-02-24T05:36:51;3.15;;;2.20;;
61397;SDS011;47267;48.130;-2.040;2023-02-24T05:39:18;3.20;;;2.00;;
61397;SDS011;47267;48.130;-2.040;2023-02-24T05:41:45;4.15;;;2.33;;
61397;SDS011;47267;48.130;-2.040;2023-02-24T05:44:14;2.90;;;2.20;;
61397;SDS011;47267;48.130;-2.040;2023-02-24T05:46:46;3.17;;;2.20;;
61397;SDS011;47267;48.130;-2.040;2023-02-24T05:51:55;3.35;;;2.05;;
61397;SDS011;47267;48.130;-2.040;2023-02-24T05:54:23;3.08;;;2.00;;
61397;SDS011;47267;48.130;-2.040;2023-02-24T05:56:53;3.55;;;1.90;;
61397;SDS011;47267;48.130;-2.040;2023-02-24T05:59:22;2.78;;;1.70;;
61397;SDS011;47267;48.130;-2.040;2023-02-24T06:01:48;3.58;;;2.20;;
61397;SDS011;47267;48.130;-2.040;2023-02-24T06:04:18;3.13;;;2.00;;
61397;SDS011;47267;48.130;-2.040;2023-02-24T06:07:03;3.22;;;2.05;;
61397;SDS011;47267;48.130;-2.040;2023-02-24T06:09:43;3.00;;;2.08;;
61397;SDS011;47267;48.130;-2.040;2023-02-24T06:12:10;2.40;;;1.92;;
61397;SDS011;47267;48.130;-2.040;2023-02-24T06:14:38;3.38;;;2.40;;
61397;SDS011;47267;48.130;-2.040;2023-02-24T06:17:04;2.40;;;1.95;;
61397;SDS011;47267;48.130;-2.040;2023-02-24T06:19:30;2.50;;;1.88;;
61397;SDS011;47267;48.130;-2.040;2023-02-24T06:21:56;3.47;;;2.17;;
61397;SDS011;47267;48.130;-2.040;2023-02-24T06:24:26;3.50;;;2.30;;
61397;SDS011;47267;48.130;-2.040;2023-02-24T06:26:53;4.10;;;2.08;;
61397;SDS011;47267;48.130;-2.040;2023-02-24T06:29:26;4.22;;;2.15;;
61397;SDS011;47267;48.130;-2.040;2023-02-24T06:31:53;5.13;;;2.20;;
61397;SDS011;47267;48.130;-2.040;2023-02-24T06:34:21;3.20;;;2.20;;
61397;SDS011;47267;48.130;-2.040;2023-02-24T06:36:49;3.30;;;2.20;;
61397;SDS011;47267;48.130;-2.040;2023-02-24T06:39:15;2.58;;;1.83;;
61397;SDS011;47267;48.130;-2.040;2023-02-24T06:41:41;3.30;;;2.22;;
61397;SDS011;47267;48.130;-2.040;2023-02-24T06:44:06;3.22;;;2.05;;
61397;SDS011;47267;48.130;-2.040;2023-02-24T06:46:33;3.03;;;1.70;;
61397;SDS011;47267;48.130;-2.040;2023-02-24T06:49:00;2.92;;;1.80;;
61397;SDS011;47267;48.130;-2.040;2023-02-24T06:51:27;3.70;;;2.03;;
61397;SDS011;47267;48.130;-2.040;2023-02-24T06:53:57;2.97;;;2.10;;
61397;SDS011;47267;48.130;-2.040;2023-02-24T06:56:24;3.00;;;1.80;;
61397;SDS011;47267;48.130;-2.040;2023-02-24T06:58:52;3.67;;;1.95;;
61397;SDS011;47267;48.130;-2.040;2023-02-24T07:01:24;3.10;;;2.00;;
61397;SDS011;47267;48.130;-2.040;2023-02-24T07:03:53;3.83;;;2.03;;
61397;SDS011;47267;48.130;-2.040;2023-02-24T07:06:32;4.25;;;2.08;;
61397;SDS011;47267;48.130;-2.040;2023-02-24T07:09:00;2.35;;;1.90;;
61397;SDS011;47267;48.130;-2.040;2023-02-24T07:11:31;2.70;;;1.77;;
61397;SDS011;47267;48.130;-2.040;2023-02-24T07:13:58;2.53;;;1.85;;
61397;SDS011;47267;48.130;-2.040;2023-02-24T07:16:25;2.80;;;2.10;;
61397;SDS011;47267;48.130;-2.040;2023-02-24T07:18:56;3.72;;;2.00;;
61397;SDS011;47267;48.130;-2.040;2023-02-24T07:21:23;4.35;;;2.00;;
61397;SDS011;47267;48.130;-2.040;2023-02-24T07:23:51;3.08;;;1.90;;
61397;SDS011;47267;48.130;-2.040;2023-02-24T07:26:24;3.85;;;2.10;;
61397;SDS011;47267;48.130;-2.040;2023-02-24T07:28:52;2.95;;;1.80;;
61397;SDS011;47267;48.130;-2.040;2023-02-24T07:31:22;2.65;;;1.80;;
61397;SDS011;47267;48.130;-2.040;2023-02-24T07:33:53;2.50;;;1.83;;
61397;SDS011;47267;48.130;-2.040;2023-02-24T07:36:21;3.65;;;2.00;;
61397;SDS011;47267;48.130;-2.040;2023-02-24T07:38:51;3.72;;;2.08;;
61397;SDS011;47267;48.130;-2.040;2023-02-24T07:41:19;2.88;;;1.90;;
61397;SDS011;47267;48.130;-2.040;2023-02-24T07:43:46;3.25;;;2.25;;
61397;SDS011;47267;48.130;-2.040;2023-02-24T07:46:18;2.95;;;1.90;;
61397;SDS011;47267;48.130;-2.040;2023-02-24T07:48:45;3.80;;;2.20;;
61397;SDS011;47267;48.130;-2.040;2023-02-24T07:51:12;2.25;;;1.90;;
61397;SDS011;47267;48.130;-2.040;2023-02-24T07:53:40;3.97;;;1.90;;
61397;SDS011;47267;48.130;-2.040;2023-02-24T07:56:11;3.58;;;2.03;;
61397;SDS011;47267;48.130;-2.040;2023-02-24T07:58:38;2.67;;;1.92;;
61397;SDS011;47267;48.130;-2.040;2023-02-24T08:01:06;3.17;;;2.20;;
61397;SDS011;47267;48.130;-2.040;2023-02-24T08:03:35;3.25;;;1.95;;
61397;SDS011;47267;48.130;-2.040;2023-02-24T08:06:07;4.38;;;1.80;;
61397;SDS011;47267;48.130;-2.040;2023-02-24T08:08:51;3.15;;;2.00;;
61397;SDS011;47267;48.130;-2.040;2023-02-24T08:11:24;4.28;;;2.10;;
61397;SDS011;47267;48.130;-2.040;2023-02-24T08:14:02;3.30;;;2.10;;
61397;SDS011;47267;48.130;-2.040;2023-02-24T08:19:11;3.10;;;2.00;;
61397;SDS011;47267;48.130;-2.040;2023-02-24T08:21:39;5.28;;;2.20;;
61397;SDS011;47267;48.130;-2.040;2023-02-24T08:24:06;3.33;;;2.10;;
61397;SDS011;47267;48.130;-2.040;2023-02-24T08:26:48;3.22;;;2.30;;
61397;SDS011;47267;48.130;-2.040;2023-02-24T08:29:28;2.70;;;2.05;;
61397;SDS011;47267;48.130;-2.040;2023-02-24T08:32:08;4.28;;;2.20;;
61397;SDS011;47267;48.130;-2.040;2023-02-24T08:34:37;3.13;;;1.83;;
61397;SDS011;47267;48.130;-2.040;2023-02-24T08:37:03;3.05;;;2.00;;
61397;SDS011;47267;48.130;-2.040;2023-02-24T08:39:30;3.63;;;2.13;;
61397;SDS011;47267;48.130;-2.040;2023-02-24T08:41:58;3.78;;;2.03;;
61397;SDS011;47267;48.130;-2.040;2023-02-24T08:44:24;2.25;;;1.80;;
61397;SDS011;47267;48.130;-2.040;2023-02-24T08:46:51;7.38;;;2.20;;
61397;SDS011;47267;48.130;-2.040;2023-02-24T08:49:19;2.83;;;1.92;;
61397;SDS011;47267;48.130;-2.040;2023-02-24T08:51:49;3.03;;;2.00;;
61397;SDS011;47267;48.130;-2.040;2023-02-24T08:54:25;2.80;;;1.75;;
61397;SDS011;47267;48.130;-2.040;2023-02-24T08:56:55;2.95;;;1.70;;
61397;SDS011;47267;48.130;-2.040;2023-02-24T08:59:22;3.33;;;1.83;;
61397;SDS011;47267;48.130;-2.040;2023-02-24T09:02:14;2.92;;;1.80;;
61397;SDS011;47267;48.130;-2.040;2023-02-24T09:04:59;4.40;;;2.05;;
61397;SDS011;47267;48.130;-2.040;2023-02-24T09:07:30;4.17;;;2.10;;
61397;SDS011;47267;48.130;-2.040;2023-02-24T09:10:00;2.95;;;1.90;;
61397;SDS011;47267;48.130;-2.040;2023-02-24T09:12:30;3.15;;;1.83;;
61397;SDS011;47267;48.130;-2.040;2023-02-24T09:15:02;3.20;;;2.00;;
61397;SDS011;47267;48.130;-2.040;2023-02-24T09:17:32;4.25;;;2.22;;
61397;SDS011;47267;48.130;-2.040;2023-02-24T09:20:19;3.80;;;1.90;;
61397;SDS011;47267;48.130;-2.040;2023-02-24T09:23:05;5.20;;;2.20;;
61397;SDS011;47267;48.130;-2.040;2023-02-24T09:25:34;8.50;;;3.47;;
61397;SDS011;47267;48.130;-2.040;2023-02-24T09:30:37;3.88;;;2.00;;
61397;SDS011;47267;48.130;-2.040;2023-02-24T09:35:51;5.43;;;2.47;;
61397;SDS011;47267;48.130;-2.040;2023-02-24T09:38:33;3.80;;;2.22;;
61397;SDS011;47267;48.130;-2.040;2023-02-24T09:41:35;4.03;;;1.90;;
61397;SDS011;47267;48.130;-2.040;2023-02-24T09:52:55;5.72;;;2.05;;
61397;SDS011;47267;48.130;-2.040;2023-02-24T09:55:44;4.78;;;1.90;;
61397;SDS011;47267;48.130;-2.040;2023-02-24T10:06:48;6.68;;;1.77;;
61397;SDS011;47267;48.130;-2.040;2023-02-24T10:11:52;5.20;;;1.75;;
61397;SDS011;47267;48.130;-2.040;2023-02-24T10:17:20;3.97;;;1.70;;
61397;SDS011;47267;48.130;-2.040;2023-02-24T10:19:50;4.70;;;1.50;;
61397;SDS011;47267;48.130;-2.040;2023-02-24T10:22:51;2.13;;;1.55;;
61397;SDS011;47267;48.130;-2.040;2023-02-24T10:25:39;4.55;;;1.73;;
61397;SDS011;47267;48.130;-2.040;2023-02-24T10:28:29;2.92;;;1.67;;
61397;SDS011;47267;48.130;-2.040;2023-02-24T10:31:11;3.63;;;1.60;;
61397;SDS011;47267;48.130;-2.040;2023-02-24T10:33:56;3.80;;;1.40;;
61397;SDS011;47267;48.130;-2.040;2023-02-24T10:36:25;5.72;;;1.60;;
61397;SDS011;47267;48.130;-2.040;2023-02-24T10:39:03;3.28;;;1.60;;
61397;SDS011;47267;48.130;-2.040;2023-02-24T10:41:44;4.40;;;1.65;;
61397;SDS011;47267;48.130;-2.040;2023-02-24T10:44:25;3.37;;;1.50;;
61397;SDS011;47267;48.130;-2.040;2023-02-24T10:47:04;2.80;;;1.20;;
61397;SDS011;47267;48.130;-2.040;2023-02-24T10:49:44;2.50;;;1.40;;
61397;SDS011;47267;48.130;-2.040;2023-02-24T10:52:39;4.45;;;1.67;;
61397;SDS011;47267;48.130;-2.040;2023-02-24T10:56:00;4.35;;;1.63;;
61397;SDS011;47267;48.130;-2.040;2023-02-24T10:58:04;3.58;;;1.50;;
61397;SDS011;47267;48.130;-2.040;2023-02-24T11:00:46;4.13;;;1.52;;
61397;SDS011;47267;48.130;-2.040;2023-02-24T11:03:32;4.68;;;1.60;;
61397;SDS011;47267;48.130;-2.040;2023-02-24T11:06:20;4.15;;;1.52;;
61397;SDS011;47267;48.130;-2.040;2023-02-24T11:09:19;2.95;;;1.40;;
61397;SDS011;47267;48.130;-2.040;2023-02-24T11:11:53;6.45;;;1.40;;
61397;SDS011;47267;48.130;-2.040;2023-02-24T11:14:47;2.75;;;1.35;;
61397;SDS011;47267;48.130;-2.040;2023-02-24T11:17:43;3.85;;;1.60;;
61397;SDS011;47267;48.130;-2.040;2023-02-24T11:20:23;4.20;;;1.42;;
61397;SDS011;47267;48.130;-2.040;2023-02-24T11:23:05;2.88;;;1.25;;
61397;SDS011;47267;48.130;-2.040;2023-02-24T11:28:05;6.10;;;1.60;;
61397;SDS011;47267;48.130;-2.040;2023-02-24T11:38:56;5.72;;;1.65;;
61397;SDS011;47267;48.130;-2.040;2023-02-24T11:41:54;4.93;;;1.52;;
61397;SDS011;47267;48.130;-2.040;2023-02-24T11:47:14;4.93;;;1.50;;
61397;SDS011;47267;48.130;-2.040;2023-02-24T11:49:45;4.15;;;1.60;;
61397;SDS011;47267;48.130;-2.040;2023-02-24T11:52:21;7.15;;;1.60;;
61397;SDS011;47267;48.130;-2.040;2023-02-24T11:54:54;5.30;;;1.50;;
61397;SDS011;47267;48.130;-2.040;2023-02-24T12:00:13;3.33;;;1.63;;
61397;SDS011;47267;48.130;-2.040;2023-02-24T12:03:49;4.85;;;1.90;;
61397;SDS011;47267;48.130;-2.040;2023-02-24T12:05:48;5.07;;;1.80;;
61397;SDS011;47267;48.130;-2.040;2023-02-24T12:10:57;4.63;;;1.50;;
61397;SDS011;47267;48.130;-2.040;2023-02-24T12:13:31;4.53;;;1.75;;
61397;SDS011;47267;48.130;-2.040;2023-02-24T12:16:16;6.20;;;1.90;;
61397;SDS011;47267;48.130;-2.040;2023-02-24T12:18:57;5.75;;;2.05;;
61397;SDS011;47267;48.130;-2.040;2023-02-24T12:21:30;5.15;;;1.85;;
61397;SDS011;47267;48.130;-2.040;2023-02-24T12:23:59;4.47;;;1.70;;
61397;SDS011;47267;48.130;-2.040;2023-02-24T12:29:15;3.67;;;1.80;;
61397;SDS011;47267;48.130;-2.040;2023-02-24T12:58:49;5.60;;;2.00;;
61397;SDS011;47267;48.130;-2.040;2023-02-24T13:06:31;7.97;;;2.60;;
61397;SDS011;47267;48.130;-2.040;2023-02-24T13:09:18;7.82;;;2.40;;
61397;SDS011;47267;48.130;-2.040;2023-02-24T13:12:03;6.78;;;2.20;;
61397;SDS011;47267;48.130;-2.040;2023-02-24T13:14:37;5.63;;;2.20;;
61397;SDS011;47267;48.130;-2.040;2023-02-24T13:19:38;7.65;;;2.17;;
61397;SDS011;47267;48.130;-2.040;2023-02-24T13:24:36;7.10;;;2.28;;
61397;SDS011;47267;48.130;-2.040;2023-02-24T13:27:21;6.18;;;2.65;;
61397;SDS011;47267;48.130;-2.040;2023-02-24T13:29:52;7.68;;;2.45;;
61397;SDS011;47267;48.130;-2.040;2023-02-24T13:34:56;6.05;;;2.13;;
61397;SDS011;47267;48.130;-2.040;2023-02-24T13:37:35;6.28;;;1.98;;
61397;SDS011;47267;48.130;-2.040;2023-02-24T13:42:41;7.05;;;2.70;;
61397;SDS011;47267;48.130;-2.040;2023-02-24T13:45:27;6.30;;;1.90;;
61397;SDS011;47267;48.130;-2.040;2023-02-24T13:50:26;10.52;;;2.47;;
61397;SDS011;47267;48.130;-2.040;2023-02-24T14:07:02;5.85;;;2.00;;
61397;SDS011;47267;48.130;-2.040;2023-02-24T14:09:32;4.40;;;2.05;;
61397;SDS011;47267;48.130;-2.040;2023-02-24T14:12:14;4.97;;;2.00;;
61397;SDS011;47267;48.130;-2.040;2023-02-24T14:14:43;6.00;;;1.90;;
61397;SDS011;47267;48.130;-2.040;2023-02-24T14:17:19;2.88;;;1.85;;
61397;SDS011;47267;48.130;-2.040;2023-02-24T14:19:50;4.15;;;2.00;;
61397;SDS011;47267;48.130;-2.040;2023-02-24T14:22:16;3.95;;;2.00;;
61397;SDS011;47267;48.130;-2.040;2023-02-24T14:24:45;7.25;;;1.83;;
61397;SDS011;47267;48.130;-2.040;2023-02-24T14:27:29;3.05;;;1.35;;
61397;SDS011;47267;48.130;-2.040;2023-02-24T14:29:55;3.92;;;1.83;;
61397;SDS011;47267;48.130;-2.040;2023-02-24T14:32:22;7.28;;;2.05;;
61397;SDS011;47267;48.130;-2.040;2023-02-24T14:34:49;5.03;;;1.95;;
61397;SDS011;47267;48.130;-2.040;2023-02-24T14:37:19;4.72;;;1.83;;
61397;SDS011;47267;48.130;-2.040;2023-02-24T14:42:18;4.35;;;1.70;;
61397;SDS011;47267;48.130;-2.040;2023-02-24T14:44:48;6.65;;;2.20;;
61397;SDS011;47267;48.130;-2.040;2023-02-24T14:47:19;5.28;;;1.70;;
61397;SDS011;47267;48.130;-2.040;2023-02-24T14:49:51;5.22;;;2.40;;
61397;SDS011;47267;48.130;-2.040;2023-02-24T14:52:28;3.17;;;2.15;;
61397;SDS011;47267;48.130;-2.040;2023-02-24T14:57:49;4.63;;;1.92;;
61397;SDS011;47267;48.130;-2.040;2023-02-24T15:00:24;3.78;;;2.50;;
61397;SDS011;47267;48.130;-2.040;2023-02-24T15:05:31;5.13;;;2.60;;
61397;SDS011;47267;48.130;-2.040;2023-02-24T15:07:57;3.80;;;2.28;;
61397;SDS011;47267;48.130;-2.040;2023-02-24T15:10:27;4.22;;;1.70;;
61397;SDS011;47267;48.130;-2.040;2023-02-24T15:12:59;3.85;;;1.48;;
61397;SDS011;47267;48.130;-2.040;2023-02-24T15:15:33;3.63;;;1.83;;
61397;SDS011;47267;48.130;-2.040;2023-02-24T15:18:07;3.60;;;1.75;;
61397;SDS011;47267;48.130;-2.040;2023-02-24T15:20:37;4.88;;;1.80;;
61397;SDS011;47267;48.130;-2.040;2023-02-24T15:23:05;6.10;;;2.33;;
61397;SDS011;47267;48.130;-2.040;2023-02-24T15:25:44;3.28;;;1.33;;
61397;SDS011;47267;48.130;-2.040;2023-02-24T15:28:27;3.47;;;1.48;;
61397;SDS011;47267;48.130;-2.040;2023-02-24T15:31:08;3.55;;;1.45;;
61397;SDS011;47267;48.130;-2.040;2023-02-24T15:33:42;3.97;;;1.50;;
61397;SDS011;47267;48.130;-2.040;2023-02-24T15:36:17;3.42;;;1.67;;
61397;SDS011;47267;48.130;-2.040;2023-02-24T15:38:44;3.60;;;1.45;;
61397;SDS011;47267;48.130;-2.040;2023-02-24T15:41:15;3.75;;;1.45;;
61397;SDS011;47267;48.130;-2.040;2023-02-24T15:43:45;7.32;;;1.92;;
61397;SDS011;47267;48.130;-2.040;2023-02-24T15:48:55;4.88;;;1.40;;
61397;SDS011;47267;48.130;-2.040;2023-02-24T15:51:33;4.05;;;1.65;;
61397;SDS011;47267;48.130;-2.040;2023-02-24T15:54:02;3.90;;;1.55;;
61397;SDS011;47267;48.130;-2.040;2023-02-24T15:56:31;3.78;;;1.58;;
61397;SDS011;47267;48.130;-2.040;2023-02-24T15:58:58;4.05;;;1.58;;
61397;SDS011;47267;48.130;-2.040;2023-02-24T16:01:29;3.28;;;1.40;;
61397;SDS011;47267;48.130;-2.040;2023-02-24T16:03:55;4.40;;;1.35;;
61397;SDS011;47267;48.130;-2.040;2023-02-24T16:06:21;3.35;;;1.55;;
61397;SDS011;47267;48.130;-2.040;2023-02-24T16:08:48;4.97;;;1.42;;
61397;SDS011;47267;48.130;-2.040;2023-02-24T16:11:17;2.70;;;1.45;;
61397;SDS011;47267;48.130;-2.040;2023-02-24T16:13:50;4.35;;;1.48;;
61397;SDS011;47267;48.130;-2.040;2023-02-24T16:16:19;3.58;;;1.63;;
61397;SDS011;47267;48.130;-2.040;2023-02-24T16:18:45;3.92;;;1.58;;
61397;SDS011;47267;48.130;-2.040;2023-02-24T16:21:11;6.25;;;1.80;;
61397;SDS011;47267;48.130;-2.040;2023-02-24T16:23:37;4.05;;;1.38;;
61397;SDS011;47267;48.130;-2.040;2023-02-24T16:26:05;4.38;;;1.40;;
61397;SDS011;47267;48.130;-2.040;2023-02-24T16:28:36;4.18;;;1.40;;
61397;SDS011;47267;48.130;-2.040;2023-02-24T16:31:03;5.07;;;1.40;;
61397;SDS011;47267;48.130;-2.040;2023-02-24T16:33:29;2.45;;;1.13;;
61397;SDS011;47267;48.130;-2.040;2023-02-24T16:35:54;4.13;;;1.20;;
61397;SDS011;47267;48.130;-2.040;2023-02-24T16:38:20;3.85;;;1.40;;
61397;SDS011;47267;48.130;-2.040;2023-02-24T16:40:50;4.40;;;1.15;;
61397;SDS011;47267;48.130;-2.040;2023-02-24T16:43:16;2.83;;;1.35;;
61397;SDS011;47267;48.130;-2.040;2023-02-24T16:45:42;4.03;;;1.48;;
61397;SDS011;47267;48.130;-2.040;2023-02-24T16:48:28;4.68;;;1.60;;
61397;SDS011;47267;48.130;-2.040;2023-02-24T16:50:58;3.10;;;1.52;;
61397;SDS011;47267;48.130;-2.040;2023-02-24T16:53:25;2.55;;;1.10;;
61397;SDS011;47267;48.130;-2.040;2023-02-24T16:55:51;4.82;;;1.58;;
61397;SDS011;47267;48.130;-2.040;2023-02-24T16:58:17;4.03;;;1.23;;
61397;SDS011;47267;48.130;-2.040;2023-02-24T17:00:44;4.28;;;1.23;;
61397;SDS011;47267;48.130;-2.040;2023-02-24T17:03:18;3.70;;;1.25;;
61397;SDS011;47267;48.130;-2.040;2023-02-24T17:05:47;2.13;;;1.00;;
61397;SDS011;47267;48.130;-2.040;2023-02-24T17:08:13;5.07;;;1.35;;
61397;SDS011;47267;48.130;-2.040;2023-02-24T17:10:41;4.47;;;1.13;;
61397;SDS011;47267;48.130;-2.040;2023-02-24T17:13:12;3.00;;;1.50;;
61397;SDS011;47267;48.130;-2.040;2023-02-24T17:15:39;2.95;;;1.00;;
61397;SDS011;47267;48.130;-2.040;2023-02-24T17:18:06;5.75;;;1.20;;
61397;SDS011;47267;48.130;-2.040;2023-02-24T17:20:32;3.20;;;1.30;;
61397;SDS011;47267;48.130;-2.040;2023-02-24T17:22:58;3.28;;;1.20;;
61397;SDS011;47267;48.130;-2.040;2023-02-24T17:25:26;2.80;;;0.93;;
61397;SDS011;47267;48.130;-2.040;2023-02-24T17:27:53;3.20;;;1.20;;
61397;SDS011;47267;48.130;-2.040;2023-02-24T17:30:21;3.08;;;1.10;;
61397;SDS011;47267;48.130;-2.040;2023-02-24T17:32:49;3.88;;;1.20;;
61397;SDS011;47267;48.130;-2.040;2023-02-24T17:35:15;4.45;;;1.30;;
61397;SDS011;47267;48.130;-2.040;2023-02-24T17:37:41;4.63;;;1.40;;
61397;SDS011;47267;48.130;-2.040;2023-02-24T17:40:08;2.95;;;1.45;;
61397;SDS011;47267;48.130;-2.040;2023-02-24T17:42:34;2.35;;;0.95;;
61397;SDS011;47267;48.130;-2.040;2023-02-24T17:45:00;3.15;;;1.65;;
61397;SDS011;47267;48.130;-2.040;2023-02-24T17:47:26;3.13;;;1.90;;